Biggs Army Air Field (Fort Bliss)
KBIF : now visible

Airfield :











YOU CAN JOIN US ON...

 
LOGIN :

Register | Disclaimer

   EN    FR    IT 

 









Legend :    VFR   Marginal VFR   IFR   Intensive IFR   Very Intensive IFR
Visi :
Ceiling :
>= 8 km
>= 3000ft
5 to 8 km
1000 to 3000 ft
1500m to 5 km
500 to 1000 ft
800 to 1500m
200 to 500 ft
< 800m
< 200 ft
Symbols :   Thunderstorms  Fog  Heavy snow  Heavy precipitations  Wind > 20 kt






- Airport Elevation : 3946 ft


KBIF - Biggs Army Air Field (Fort Bliss)

CURRENT METAR :
  • 272128Z AUTO 01008KT 1 5/8SM -SN BR SCT009 OVC017 00/M01 A3005 RMK AO2 SLP179

EXPIRED METARs :
  • 272113Z AUTO 02008KT 1 1/4SM -SN BKN019 OVC032 00/M02 A3005 RMK AO2 VIS 2 3/4 RWY03 SLP179 $
  • 272058Z AUTO 04005KT 1 5/8SM -SN BKN021 OVC033 00/M03 A3004 RMK AO2 VIS 1 5/8V2 3/4 UPB27E41SNB41 CIG 019V029 SLP176 P0000 60001 58005 $
  • 272052Z AUTO 03006KT 2SM -SN SCT019 BKN026 OVC033 00/M03 A3004 RMK AO2 VIS 2V5 UPB27E41SNB41 CIG 018V029 SLP176 $
  • 272027Z AUTO 05006KT 10SM UP OVC017 01/M03 A3005 RMK AO2 UPB27 OVC V BKN SLP177 $
  • 272013Z AUTO 07009KT 10SM BKN016 OVC031 01/M03 A3005 RMK AO2 CIG 016V031 BKN V SCT SLP177 $
  • 271958Z AUTO 07008KT 10SM FEW016 OVC030 00/M03 A3005 RMK AO2 CIG 016 RWY03 SLP179 T00041031 $

TAF AMD TAF KBIF
Valid from the 27 at 14:00 until the 28 at 20:00 UTC


271411Z 2714/2820 22005KT 1800 -SN OVC029 620607 QNH3002INS
BECMG 2717/2718 30010KT 8000 -SN OVC050 650505 QNH3006INS TX00/2800Z TNM03/2715Z
KZAB FIR / North America



MET'MAP, your aeronautical weather chart ! - Copyright ORBIFLY December 2007 - Disclaimer

ORBIFLY MET'MAP TEAM :

Programming & Development : Alexandra Zaïnal
Concept & original design : Baudouin d'Aumeries
Assistance for programming : Marc-Olivier Méhu
Technical & hardware support : Manuel Goepfert

Contact : metmap@orbifly.com




SOURCES & CREDITS :

   NOAA       Earth
Advisory